Time;durP1;ratioP1;P1;durP2;ratioP2;P2;SDS_P1;SDS_P2;PMS_P1;PMS_P2;Temp;Humidity;BMP_temperature;BMP_pressure;BME280_temperature;BME280_humidity;BME280_pressure;Samples;Min_cycle;Max_cycle;Signal;HPM_P1;HPM_P2
2022/01/26 00:08:06;;;;;;;11.70;10.17;;;;;;;5.68;54.68;99306.38;8416161;28;20242;-82
2022/01/26 00:12:10;;;;;;;13.90;10.77;;;;;;;5.66;54.94;99304.69;8415911;28;20241;-82
2022/01/26 00:16:23;;;;;;;15.13;10.30;;;;;;;5.76;54.99;99303.78;8416044;28;20231;-82
2022/01/26 00:20:32;;;;;;;13.83;10.60;;;;;;;5.74;54.74;99302.94;8415937;28;20231;-82
2022/01/26 00:24:55;;;;;;;15.67;11.07;;;;;;;5.81;55.05;99304.63;8415432;28;20233;-83
2022/01/26 00:29:09;;;;;;;15.87;11.77;;;;;;;5.71;55.39;99295.22;8415634;28;20230;-83
2022/01/26 00:41:59;;;;;;;14.63;12.03;;;;;;;5.73;55.41;99305.50;8415482;28;20211;-84
2022/01/26 00:46:04;;;;;;;14.30;11.87;;;;;;;5.72;55.27;99301.22;8415564;28;20245;-84
2022/01/26 00:50:11;;;;;;;16.87;12.47;;;;;;;5.63;55.77;99295.25;8415572;28;20533;-82
2022/01/26 00:54:14;;;;;;;17.00;13.23;;;;;;;5.76;55.77;99296.06;8414927;28;20388;-82
2022/01/26 00:58:19;;;;;;;15.83;12.67;;;;;;;5.81;55.52;99296.91;8415065;28;20245;-82
2022/01/26 01:02:22;;;;;;;20.97;14.17;;;;;;;5.77;55.80;99292.66;8414962;28;20232;-82
2022/01/26 01:06:31;;;;;;;22.23;15.50;;;;;;;5.67;55.96;99289.25;8415310;28;20237;-82
2022/01/26 01:10:34;;;;;;;18.93;14.83;;;;;;;5.78;55.90;99284.06;8416001;28;20234;-82
2022/01/26 01:14:40;;;;;;;20.23;14.73;;;;;;;5.68;55.82;99295.25;8413959;28;20230;-82
2022/01/26 01:18:48;;;;;;;16.40;12.97;;;;;;;5.72;56.04;99298.66;8419029;28;20227;-82
2022/01/26 01:23:09;;;;;;;15.57;13.10;;;;;;;5.76;55.81;99293.50;8429493;28;20237;-82
2022/01/26 01:27:44;;;;;;;18.47;14.70;;;;;;;5.69;56.03;99296.94;8426709;28;20243;-82
2022/01/26 01:31:51;;;;;;;18.90;14.03;;;;;;;5.77;56.07;99294.34;8428575;28;20222;-82
2022/01/26 01:35:54;;;;;;;19.37;14.13;;;;;;;5.64;56.31;99301.25;8418393;28;20533;-82
2022/01/26 01:39:57;;;;;;;19.63;14.47;;;;;;;5.70;56.62;99305.53;8413699;28;20242;-82
2022/01/26 01:44:04;;;;;;;18.07;13.50;;;;;;;5.67;56.35;99302.09;8414291;28;20246;-82
2022/01/26 01:48:08;;;;;;;19.53;13.97;;;;;;;5.63;56.26;99300.38;8414955;28;20298;-82
2022/01/26 01:52:14;;;;;;;17.07;13.37;;;;;;;5.70;56.56;99301.22;8415993;28;20493;-82
2022/01/26 01:56:20;;;;;;;16.27;12.77;;;;;;;5.74;56.46;99292.66;8416124;28;20328;-83
2022/01/26 02:00:26;;;;;;;17.47;13.80;;;;;;;5.72;56.35;99285.81;8437349;28;20291;-83
2022/01/26 02:04:30;;;;;;;16.93;13.00;;;;;;;5.71;56.18;99286.66;8446450;28;20236;-82
2022/01/26 02:08:34;;;;;;;15.13;11.40;;;;;;;5.62;55.95;99279.84;8445562;28;20252;-82
2022/01/26 02:12:42;;;;;;;15.70;11.83;;;;;;;5.79;55.92;99282.38;8445298;28;20427;-82
2022/01/26 02:16:50;;;;;;;15.27;11.57;;;;;;;5.74;56.05;99282.38;8446328;28;20559;-83
2022/01/26 02:21:11;;;;;;;14.60;11.60;;;;;;;5.76;55.81;99287.50;8446155;28;20226;-82
2022/01/26 02:55:41;;;;;;;17.37;13.83;;;;;;;5.48;56.34;99279.88;8451463;28;20414;-82
2022/01/26 03:00:17;;;;;;;20.37;14.10;;;;;;;5.40;56.33;99284.19;8442978;28;20268;-82
2022/01/26 03:04:28;;;;;;;19.73;14.47;;;;;;;5.55;56.56;99275.59;8417884;28;20226;-82
2022/01/26 03:08:34;;;;;;;16.97;13.60;;;;;;;5.19;56.44;99269.66;8417263;28;20223;-82
2022/01/26 03:12:46;;;;;;;15.27;12.83;;;;;;;5.43;56.33;99272.19;8417775;28;20235;-84
2022/01/26 03:16:55;;;;;;;16.37;13.43;;;;;;;5.35;56.30;99268.78;8417717;28;20234;-83
2022/01/26 03:21:01;;;;;;;16.07;13.10;;;;;;;5.38;56.62;99268.75;8423420;28;20234;-83
2022/01/26 03:29:53;;;;;;;17.63;14.10;;;;;;;5.34;56.96;99266.22;8417342;28;20246;-82
2022/01/26 03:34:00;;;;;;;18.10;14.17;;;;;;;5.29;56.63;99266.22;8416778;28;20253;-81
2022/01/26 03:38:04;;;;;;;19.90;15.70;;;;;;;5.31;56.76;99279.06;8417617;28;20544;-82
2022/01/26 03:42:13;;;;;;;21.70;14.23;;;;;;;5.37;56.61;99271.34;8417109;28;20234;-81
2022/01/26 03:46:21;;;;;;;18.00;13.90;;;;;;;5.33;55.88;99265.38;8416528;28;20241;-82
2022/01/26 03:50:25;;;;;;;20.87;15.23;;;;;;;5.20;56.28;99272.25;8416750;28;20333;-82
2022/01/26 03:54:28;;;;;;;19.53;15.00;;;;;;;5.21;56.73;99275.66;8417988;28;20238;-81
2022/01/26 03:58:34;;;;;;;20.83;15.20;;;;;;;5.15;56.11;99260.28;8416073;28;20223;-81
2022/01/26 04:02:39;;;;;;;17.80;13.43;;;;;;;5.27;56.53;99270.50;8416185;28;20537;-81
2022/01/26 04:06:42;;;;;;;19.70;14.53;;;;;;;5.27;56.05;99278.22;8416274;28;20235;-81
2022/01/26 04:10:56;;;;;;;19.43;13.53;;;;;;;4.98;57.04;99268.84;8416270;28;20243;-81
2022/01/26 04:15:06;;;;;;;20.20;14.67;;;;;;;5.05;56.82;99267.13;8416575;28;20226;-81
2022/01/26 04:19:11;;;;;;;20.70;15.00;;;;;;;5.23;55.99;99284.22;8415800;28;20433;-81
2022/01/26 04:23:19;;;;;;;21.33;15.33;;;;;;;5.25;56.35;99277.38;8415496;28;20234;-80
2022/01/26 04:27:31;;;;;;;23.63;16.73;;;;;;;5.40;55.97;99276.47;8415167;28;20230;-79
2022/01/26 04:31:34;;;;;;;22.20;15.60;;;;;;;5.29;56.62;99274.81;8415049;28;20226;-81
2022/01/26 04:35:43;;;;;;;21.50;15.33;;;;;;;5.35;56.39;99279.06;8415438;28;20241;-82
2022/01/26 04:39:51;;;;;;;20.17;14.30;;;;;;;4.90;56.53;99273.13;8415199;28;20230;-82
2022/01/26 04:43:59;;;;;;;20.83;13.93;;;;;;;5.28;55.63;99264.53;8415042;28;20227;-81
2022/01/26 04:48:02;;;;;;;15.13;12.13;;;;;;;5.49;55.63;99261.03;8414424;28;20293;-82
2022/01/26 04:52:08;;;;;;;19.03;13.13;;;;;;;5.40;55.10;99243.06;8414669;28;20538;-82
2022/01/26 04:56:13;;;;;;;16.63;13.40;;;;;;;5.49;55.10;99253.34;8414705;28;20247;-83
2022/01/26 05:00:17;;;;;;;15.03;11.03;;;;;;;5.45;54.45;99243.94;8414450;28;20396;-82
2022/01/26 05:04:21;;;;;;;12.73;10.40;;;;;;;5.53;54.75;99242.19;8413643;28;20301;-83
2022/01/26 05:08:26;;;;;;;13.27;10.73;;;;;;;5.54;54.26;99235.31;8414124;28;20239;-82
2022/01/26 05:12:30;;;;;;;16.03;12.07;;;;;;;5.51;54.96;99246.47;8413760;28;20293;-83
2022/01/26 05:16:34;;;;;;;15.73;12.07;;;;;;;5.50;54.63;99237.03;8413819;28;20226;-83
2022/01/26 05:20:38;;;;;;;15.03;11.47;;;;;;;5.47;54.48;99231.94;8413858;28;20546;-83
2022/01/26 05:24:43;;;;;;;15.30;11.90;;;;;;;5.52;54.73;99231.91;8414064;28;20234;-82
2022/01/26 05:28:46;;;;;;;15.53;11.70;;;;;;;5.44;54.93;99234.50;8412471;28;20235;-82
2022/01/26 05:32:49;;;;;;;15.07;11.80;;;;;;;5.56;54.48;99220.75;8413485;28;20238;-82
2022/01/26 05:36:52;;;;;;;15.60;11.70;;;;;;;5.53;54.80;99211.34;8413769;28;20223;-82
2022/01/26 05:41:00;;;;;;;16.47;12.47;;;;;;;5.43;54.84;99214.81;8413912;28;20250;-82
2022/01/26 05:45:08;;;;;;;14.83;11.07;;;;;;;5.49;54.30;99225.06;8413695;28;20230;-82
2022/01/26 05:49:12;;;;;;;15.33;12.63;;;;;;;5.38;54.68;99224.25;8413596;28;20581;-82
2022/01/26 05:53:17;;;;;;;19.93;13.30;;;;;;;5.47;54.78;99225.06;8413294;28;20234;-84
2022/01/26 05:57:21;;;;;;;16.43;13.33;;;;;;;5.54;54.67;99236.19;8438382;28;20379;-84
2022/01/26 06:01:26;;;;;;;15.63;13.97;;;;;;;5.29;54.54;99243.97;8423849;28;20552;-83
2022/01/26 06:05:30;;;;;;;16.83;13.17;;;;;;;5.09;55.04;99230.31;8413230;28;20281;-83
2022/01/26 06:09:33;;;;;;;17.20;14.23;;;;;;;5.12;54.67;99224.31;8406374;28;20234;-83
2022/01/26 06:13:38;;;;;;;14.57;12.50;;;;;;;5.35;54.47;99213.97;8407065;28;20231;-83
2022/01/26 06:17:40;;;;;;;15.17;13.20;;;;;;;5.47;54.30;99222.50;8419512;28;20257;-80
2022/01/26 06:21:44;;;;;;;15.13;13.03;;;;;;;5.42;54.13;99207.97;8419453;28;20242;-81
2022/01/26 06:25:47;;;;;;;18.33;15.20;;;;;;;5.42;54.52;99205.38;8419420;28;20234;-80
2022/01/26 06:29:51;;;;;;;16.93;14.83;;;;;;;5.56;54.40;99231.91;8404173;28;20231;-81
2022/01/26 06:33:55;;;;;;;19.40;15.93;;;;;;;5.46;54.50;99230.19;8396847;28;20243;-82
2022/01/26 06:37:58;;;;;;;19.53;15.93;;;;;;;5.46;54.59;99232.78;8386819;28;20228;-84
2022/01/26 06:42:03;;;;;;;19.70;16.37;;;;;;;5.46;54.68;99237.91;8449126;28;20238;-85
2022/01/26 06:46:08;;;;;;;22.03;16.83;;;;;;;5.50;54.62;99231.91;8386020;28;20242;-84
2022/01/26 06:50:12;;;;;;;18.80;15.87;;;;;;;5.47;54.03;99239.63;8385628;28;20243;-84
2022/01/26 06:54:15;;;;;;;18.83;16.73;;;;;;;5.20;54.70;99245.72;8405920;28;20227;-84
2022/01/26 06:58:19;;;;;;;20.20;16.87;;;;;;;5.25;54.50;99239.72;8424531;28;20550;-85
2022/01/26 07:02:23;;;;;;;19.23;17.10;;;;;;;5.26;53.98;99241.41;8416637;28;20263;-85
2022/01/26 07:06:27;;;;;;;19.67;17.57;;;;;;;5.29;54.44;99253.38;8422986;28;20226;-84
2022/01/26 07:10:32;;;;;;;18.93;17.03;;;;;;;5.06;55.04;99253.41;8422294;28;20234;-84
2022/01/26 07:23:18;;;;;;;18.27;14.80;;;;;;;5.31;53.85;99235.41;8417100;28;20226;-85
2022/01/26 07:27:21;;;;;;;17.90;15.40;;;;;;;4.90;55.38;99248.31;8417003;28;20264;-85
2022/01/26 07:31:25;;;;;;;15.97;14.00;;;;;;;5.11;55.04;99241.44;8417293;28;20559;-84
2022/01/26 07:35:30;;;;;;;17.90;15.27;;;;;;;5.19;54.35;99261.97;8417228;28;20234;-84
2022/01/26 07:39:42;;;;;;;16.07;14.33;;;;;;;5.30;54.44;99273.09;8415726;28;20264;-86
2022/01/26 07:43:46;;;;;;;13.10;11.70;;;;;;;5.16;53.34;99275.69;8417137;28;20230;-85
2022/01/26 07:47:52;;;;;;;12.10;10.80;;;;;;;5.01;54.60;99260.31;8416966;28;20526;-84
2022/01/26 07:51:57;;;;;;;16.70;13.33;;;;;;;5.15;54.07;99262.84;8417199;28;20241;-84
2022/01/26 07:56:00;;;;;;;13.53;11.50;;;;;;;5.19;54.34;99267.09;8417046;28;20567;-85
2022/01/26 08:00:05;;;;;;;15.47;12.53;;;;;;;5.27;54.07;99284.22;8416915;28;20545;-85
2022/01/26 08:04:09;;;;;;;14.67;12.23;;;;;;;4.94;54.96;99279.97;8445868;28;20226;-86
2022/01/26 08:08:16;;;;;;;14.70;13.00;;;;;;;5.11;54.63;99273.97;8449540;28;20234;-85
2022/01/26 08:12:21;;;;;;;16.07;12.93;;;;;;;5.21;54.60;99266.22;8450433;28;20234;-85
2022/01/26 08:16:44;;;;;;;17.97;14.60;;;;;;;5.11;54.94;99268.84;8450100;28;20226;-86
2022/01/26 08:20:48;;;;;;;17.00;14.07;;;;;;;5.15;54.85;99279.09;8431101;28;20619;-86
2022/01/26 08:24:53;;;;;;;18.73;15.10;;;;;;;4.99;55.40;99273.13;8449283;28;20468;-85
2022/01/26 08:28:57;;;;;;;16.53;14.20;;;;;;;5.14;55.29;99274.84;8449517;28;20554;-86
2022/01/26 08:33:00;;;;;;;16.53;13.50;;;;;;;5.32;55.44;99278.22;8449975;28;20229;-85
2022/01/26 08:37:07;;;;;;;17.20;14.53;;;;;;;5.40;54.85;99266.19;8449167;28;20397;-86
2022/01/26 08:41:12;;;;;;;18.73;15.33;;;;;;;5.37;55.40;99269.66;8450139;28;20293;-85
2022/01/26 08:45:15;;;;;;;16.67;13.27;;;;;;;5.17;54.83;99267.09;8449674;28;20238;-85
2022/01/26 08:49:19;;;;;;;17.03;12.63;;;;;;;5.16;55.10;99260.28;8447768;28;20230;-86
2022/01/26 08:53:24;;;;;;;15.60;13.00;;;;;;;5.41;55.22;99250.78;8431034;28;20226;-86
2022/01/26 08:57:28;;;;;;;20.53;13.77;;;;;;;5.40;54.81;99259.34;8415967;28;20553;-85
2022/01/26 09:01:31;;;;;;;17.00;13.97;;;;;;;5.52;55.19;99263.63;8414407;28;20230;-87
2022/01/26 09:05:35;;;;;;;18.23;12.90;;;;;;;5.39;55.19;99260.22;8413190;28;20238;-85
2022/01/26 09:09:44;;;;;;;16.20;12.87;;;;;;;5.35;55.17;99250.81;8414594;28;20238;-85
2022/01/26 09:13:55;;;;;;;16.80;12.53;;;;;;;5.55;54.70;99261.00;8428275;28;20554;-84
2022/01/26 09:18:02;;;;;;;17.20;12.60;;;;;;;5.33;55.07;99267.94;8425155;28;20537;-87
2022/01/26 09:22:07;;;;;;;15.87;11.80;;;;;;;5.24;55.91;99281.66;8426968;28;20234;-86
2022/01/26 09:26:10;;;;;;;15.37;11.90;;;;;;;5.50;55.00;99267.88;8428070;28;20421;-84
2022/01/26 09:30:15;;;;;;;16.07;12.43;;;;;;;5.41;55.86;99258.50;8433855;28;20230;-83
2022/01/26 09:34:21;;;;;;;15.30;10.97;;;;;;;5.52;54.82;99244.75;8448457;28;20521;-84
2022/01/26 09:38:24;;;;;;;14.47;11.80;;;;;;;5.31;55.84;99250.81;8447843;28;20523;-84
2022/01/26 09:42:27;;;;;;;14.60;11.97;;;;;;;5.26;55.83;99261.09;8441304;28;20230;-84
2022/01/26 09:46:32;;;;;;;14.03;7.93;;;;;;;8.71;85.54;99265.78;8445745;28;20234;-83
2022/01/26 09:50:35;;;;;;;15.23;12.27;;;;;;;9.91;52.87;99256.66;8414882;28;20246;-82
2022/01/26 09:54:38;;;;;;;18.97;15.20;;;;;;;7.38;52.00;99251.16;8413598;28;20231;-82
2022/01/26 09:59:01;;;;;;;20.53;15.10;;;;;;;6.81;52.88;99280.03;8414305;28;20230;-86
2022/01/26 10:03:07;;;;;;;20.53;14.00;;;;;;;6.30;53.90;99270.09;8415956;28;20238;-86
2022/01/26 10:07:19;;;;;;;13.33;11.33;;;;;;;6.08;53.82;99266.81;8417417;28;20238;-86
2022/01/26 10:16:04;;;;;;;12.83;10.67;;;;;;;5.95;54.88;99272.84;8415857;28;20424;-85
2022/01/26 10:20:15;;;;;;;12.23;10.17;;;;;;;6.06;54.70;99266.81;8413761;28;20236;-85
2022/01/26 10:24:20;;;;;;;13.03;10.57;;;;;;;6.03;54.82;99269.41;8413544;28;20518;-86
2022/01/26 10:28:24;;;;;;;12.57;10.10;;;;;;;5.93;54.69;99280.56;8413711;28;20238;-87
2022/01/26 10:32:33;;;;;;;14.00;11.47;;;;;;;5.79;55.22;99287.50;8414151;28;20231;-86
2022/01/26 10:36:39;;;;;;;14.87;11.67;;;;;;;5.86;55.45;99284.03;8415945;28;20510;-87
2022/01/26 10:40:43;;;;;;;14.63;12.63;;;;;;;5.72;55.30;99294.38;8414462;28;20238;-87
2022/01/26 10:44:52;;;;;;;15.93;12.37;;;;;;;5.62;55.95;99287.56;8415608;28;20234;-90
2022/01/26 10:49:14;;;;;;;17.43;13.90;;;;;;;5.27;56.15;99280.78;8414690;28;20341;-92
2022/01/26 10:53:36;;;;;;;20.33;13.47;;;;;;;5.44;55.97;99283.31;8414270;28;20230;-94
2022/01/26 10:57:39;;;;;;;17.47;14.47;;;;;;;5.60;55.92;99272.13;8380246;28;20234;-91
2022/01/26 11:01:43;;;;;;;18.40;14.47;;;;;;;5.43;56.35;99273.91;8387196;28;20238;-91
2022/01/26 11:05:47;;;;;;;22.73;16.43;;;;;;;5.13;56.95;99287.66;8391526;28;20242;-90
2022/01/26 11:09:52;;;;;;;22.30;15.00;;;;;;;5.53;56.57;99270.44;8400080;28;20227;-89
2022/01/26 11:13:55;;;;;;;22.90;16.37;;;;;;;5.45;56.64;99262.75;8420167;28;20293;-90
2022/01/26 11:18:20;;;;;;;18.13;15.00;;;;;;;5.50;56.14;99257.59;8409640;28;20218;-90
2022/01/26 11:22:29;;;;;;;18.33;13.03;;;;;;;5.65;55.66;99247.28;8423824;28;20231;-90
2022/01/26 11:26:34;;;;;;;16.07;12.20;;;;;;;5.40;56.54;99243.94;8406044;28;20231;-89
2022/01/26 11:30:38;;;;;;;14.63;11.97;;;;;;;5.24;56.98;99245.69;8422835;28;20230;-86
2022/01/26 11:34:42;;;;;;;16.23;12.40;;;;;;;5.32;57.15;99243.09;8421919;28;20237;-88
2022/01/26 11:42:11;;;;;;;17.80;12.40;;;;;;;5.54;56.37;99222.47;8422075;28;20266;-85
2022/01/26 11:48:05;;;;;;;15.47;11.90;;;;;;;5.46;56.19;99223.38;8421531;28;20234;-86
2022/01/26 11:52:19;;;;;;;14.10;10.97;;;;;;;5.42;55.76;99219.09;8420082;28;20238;-86
2022/01/26 11:56:23;;;;;;;13.67;10.50;;;;;;;5.34;55.87;99217.41;8420293;28;20329;-86
2022/01/26 12:00:41;;;;;;;14.87;10.50;;;;;;;5.30;56.24;99231.97;8421268;28;20231;-85
2022/01/26 12:04:47;;;;;;;14.43;9.90;;;;;;;5.34;56.41;99249.09;8419123;28;20296;-86
2022/01/26 12:08:51;;;;;;;14.10;10.43;;;;;;;5.39;56.14;99255.06;8421142;28;20437;-84
2022/01/26 12:13:02;;;;;;;14.77;10.97;;;;;;;5.13;56.47;99246.59;8423574;28;20231;-84
2022/01/26 12:17:12;;;;;;;14.13;10.50;;;;;;;5.21;56.36;99237.13;8423625;28;20235;-84
2022/01/26 12:38:57;;;;;;;13.57;11.33;;;;;;;5.19;57.43;99223.44;8423865;28;20231;-86
2022/01/26 12:43:05;;;;;;;19.27;13.10;;;;;;;5.27;57.30;99235.41;8420098;28;20237;-85
2022/01/26 12:47:30;;;;;;;16.27;11.17;;;;;;;5.21;57.61;99237.97;8419134;28;20230;-86
2022/01/26 12:51:41;;;;;;;17.23;12.60;;;;;;;5.18;57.58;99235.44;8421188;28;20429;-88
2022/01/26 12:55:44;;;;;;;15.17;11.63;;;;;;;5.19;58.09;99238.84;8420994;28;20235;-88
2022/01/26 12:59:47;;;;;;;16.70;12.17;;;;;;;5.31;58.14;99235.41;8419832;28;20235;-89
2022/01/26 13:03:57;;;;;;;16.57;12.57;;;;;;;5.15;57.97;99234.59;8421270;28;20238;-86
2022/01/26 13:08:02;;;;;;;16.23;13.00;;;;;;;5.36;57.72;99238.81;8420431;28;20242;-86
2022/01/26 13:12:07;;;;;;;16.60;12.20;;;;;;;4.85;58.54;99231.19;8421415;28;20576;-87
2022/01/26 13:16:20;;;;;;;16.07;11.67;;;;;;;5.13;58.48;99232.03;8402751;28;20230;-87
2022/01/26 13:20:41;;;;;;;14.20;11.40;;;;;;;5.28;57.55;99220.84;8420791;28;20226;-87
2022/01/26 13:29:24;;;;;;;14.23;11.43;;;;;;;4.89;58.47;99220.94;8410740;28;20230;-89
2022/01/26 13:43:10;;;;;;;16.97;13.20;;;;;;;4.78;58.41;99247.47;8418975;28;20226;-90
2022/01/26 13:51:47;;;;;;;15.37;11.97;;;;;;;4.72;59.02;99260.28;8343121;28;20236;-90
2022/01/26 14:00:21;;;;;;;13.73;11.67;;;;;;;4.78;58.32;99262.84;8455808;28;20237;-82
2022/01/26 14:04:25;;;;;;;12.90;11.30;;;;;;;4.60;58.70;99272.25;8450988;28;20230;-83
2022/01/26 14:08:28;;;;;;;14.40;11.30;;;;;;;4.56;58.52;99279.97;8449287;28;20541;-85
2022/01/26 14:12:36;;;;;;;11.00;9.63;;;;;;;4.60;58.32;99292.78;8422388;28;20227;-84
2022/01/26 14:16:54;;;;;;;10.17;8.80;;;;;;;4.66;58.19;99290.25;8433726;28;20227;-87
2022/01/26 14:21:10;;;;;;;9.20;7.83;;;;;;;4.57;58.03;99289.38;8435999;28;20225;-86
2022/01/26 14:25:24;;;;;;;7.03;5.90;;;;;;;4.48;57.34;99297.91;8431151;28;20282;-85
2022/01/26 14:51:34;;;;;;;4.73;4.23;;;;;;;5.16;54.09;99223.44;8449012;28;20242;-83
2022/01/26 14:55:58;;;;;;;7.13;5.50;;;;;;;5.23;53.88;99223.41;8441923;28;20271;-84
2022/01/26 15:00:11;;;;;;;3.80;3.47;;;;;;;5.24;54.27;99209.72;8440923;28;20541;-85
2022/01/26 15:30:58;;;;;;;6.10;5.50;;;;;;;5.28;53.84;99228.56;8435713;28;20233;-85
2022/01/26 15:35:20;;;;;;;7.73;6.63;;;;;;;5.32;53.70;99209.72;8441376;28;20226;-85
2022/01/26 15:44:03;;;;;;;5.90;5.30;;;;;;;5.38;53.70;99230.22;8460729;28;20233;-86
2022/01/26 15:52:52;;;;;;;6.10;5.50;;;;;;;5.23;54.30;99228.56;8457547;28;20234;-85
2022/01/26 18:07:18;;;;;;;7.53;6.83;;;;;;;5.05;55.44;99237.16;8447117;28;20237;-86
2022/01/26 18:15:47;;;;;;;9.07;8.17;;;;;;;5.13;55.27;99228.59;8446881;28;20229;-85
2022/01/26 18:32:57;;;;;;;11.77;8.80;;;;;;;9.57;54.94;99218.53;8446409;28;20413;-84
2022/01/26 18:50:05;;;;;;;10.80;9.17;;;;;;;5.95;54.15;99253.16;8415530;28;20223;-88
2022/01/26 18:54:15;;;;;;;10.03;8.40;;;;;;;5.91;54.34;99246.31;8423803;28;20254;-87
2022/01/26 18:58:18;;;;;;;12.37;10.80;;;;;;;5.82;54.26;99236.91;8425732;28;20321;-87
2022/01/26 19:02:24;;;;;;;12.93;9.77;;;;;;;5.86;54.68;99235.19;8420186;28;20558;-86
2022/01/26 19:06:49;;;;;;;10.43;9.50;;;;;;;5.75;54.87;99245.53;8412619;28;20247;-88
2022/01/26 19:10:53;;;;;;;12.27;9.90;;;;;;;5.69;54.87;99250.66;8412845;28;20242;-86
2022/01/26 19:15:02;;;;;;;11.07;9.53;;;;;;;5.41;55.33;99224.25;8413860;28;20238;-87
2022/01/26 19:19:14;;;;;;;11.35;10.20;;;;;;;5.80;54.74;99212.06;8414212;28;20455;-87
2022/01/26 19:27:47;;;;;;;11.17;9.50;;;;;;;5.58;55.55;99248.16;8416388;28;20227;-88
2022/01/26 19:32:18;;;;;;;11.17;9.97;;;;;;;5.48;55.72;99247.34;8419837;28;20239;-87
2022/01/26 19:45:44;;;;;;;13.83;12.20;;;;;;;5.13;56.63;99262.84;8371774;28;20413;-87
2022/01/26 19:54:06;;;;;;;14.10;12.57;;;;;;;5.29;56.19;99259.38;8418543;28;20255;-85
2022/01/26 19:58:12;;;;;;;13.83;12.37;;;;;;;5.20;56.17;99267.09;8416008;28;20227;-86
2022/01/26 20:02:17;;;;;;;14.70;12.03;;;;;;;5.37;55.93;99263.63;8417612;28;20234;-87
2022/01/26 20:06:21;;;;;;;13.60;11.73;;;;;;;5.12;56.15;99261.09;8417653;28;20546;-86
2022/01/26 20:10:28;;;;;;;12.53;11.10;;;;;;;5.13;56.91;99256.84;8417103;28;20242;-85
2022/01/26 20:14:36;;;;;;;14.10;12.60;;;;;;;5.29;56.54;99249.13;8417030;28;20227;-87
2022/01/26 20:18:42;;;;;;;14.23;11.60;;;;;;;5.28;55.51;99238.84;8417240;28;20297;-87
2022/01/26 20:22:45;;;;;;;11.67;10.50;;;;;;;5.04;56.54;99234.59;8417077;28;20238;-86
2022/01/26 20:26:51;;;;;;;13.83;10.83;;;;;;;4.97;57.29;99230.31;8418259;28;20235;-86
2022/01/26 20:30:55;;;;;;;15.47;11.53;;;;;;;5.05;56.74;99236.31;8416812;28;20527;-87
2022/01/26 20:34:59;;;;;;;13.40;12.00;;;;;;;5.17;56.48;99230.31;8420053;28;20231;-86
2022/01/26 20:39:05;;;;;;;13.93;12.20;;;;;;;4.92;56.75;99229.50;8421504;28;20233;-88
2022/01/26 20:43:09;;;;;;;14.57;12.50;;;;;;;5.07;56.82;99225.19;8428422;28;20242;-87
2022/01/26 20:47:12;;;;;;;13.93;12.43;;;;;;;5.16;56.90;99210.59;8433038;28;20229;-87
2022/01/26 20:51:17;;;;;;;14.80;12.83;;;;;;;5.18;56.65;99209.75;8406070;28;20231;-88
2022/01/26 20:55:21;;;;;;;15.90;13.60;;;;;;;5.15;57.03;99189.22;8399709;28;20296;-88
2022/01/26 20:59:25;;;;;;;13.63;12.20;;;;;;;5.07;56.42;99180.69;8398660;28;20222;-88
2022/01/26 21:03:28;;;;;;;15.07;12.70;;;;;;;4.91;57.24;99187.53;8431927;28;20631;-87
2022/01/26 21:07:34;;;;;;;14.00;12.60;;;;;;;5.09;56.98;99184.94;8423159;28;20234;-86
2022/01/26 21:11:37;;;;;;;15.10;12.90;;;;;;;5.11;56.48;99172.09;8427315;28;20234;-87
2022/01/26 21:15:40;;;;;;;13.70;12.27;;;;;;;5.00;56.48;99184.13;8397454;28;20231;-87
2022/01/26 21:19:44;;;;;;;13.90;12.50;;;;;;;5.14;56.67;99187.53;8398910;28;20233;-88
2022/01/26 21:23:49;;;;;;;13.80;12.23;;;;;;;5.12;56.25;99194.34;8405200;28;20423;-88
2022/01/26 21:27:52;;;;;;;13.33;12.00;;;;;;;5.09;56.51;99194.38;8396947;28;20242;-87
2022/01/26 21:31:56;;;;;;;14.50;12.57;;;;;;;5.14;56.68;99192.66;8396931;28;20782;-88
2022/01/26 21:35:59;;;;;;;13.80;12.20;;;;;;;4.86;57.06;99179.03;8399166;28;20550;-88
2022/01/26 21:40:07;;;;;;;13.17;11.80;;;;;;;5.02;56.77;99184.97;8394405;28;20315;-87
2022/01/26 21:44:10;;;;;;;14.37;12.13;;;;;;;4.69;57.29;99192.72;8394389;28;20227;-89
2022/01/26 21:48:13;;;;;;;14.27;12.60;;;;;;;4.90;56.86;99178.16;8396682;28;20247;-87
2022/01/26 21:52:17;;;;;;;16.07;13.77;;;;;;;4.67;56.58;99170.50;8396421;28;20541;-88
2022/01/26 21:56:23;;;;;;;17.67;14.47;;;;;;;4.86;57.06;99166.19;8396498;28;20462;-89
2022/01/26 22:00:26;;;;;;;19.33;14.70;;;;;;;4.77;56.71;99158.50;8397673;28;20230;-88
2022/01/26 22:04:32;;;;;;;17.60;15.60;;;;;;;5.04;56.19;99162.72;8414113;28;20227;-87
2022/01/26 22:08:35;;;;;;;19.23;15.47;;;;;;;4.93;55.92;99156.75;8401659;28;20627;-86
2022/01/26 22:12:42;;;;;;;19.67;15.87;;;;;;;4.72;56.77;99160.22;8395062;28;20238;-88
2022/01/26 22:16:45;;;;;;;21.77;16.13;;;;;;;4.27;57.61;99160.25;8394332;28;20251;-86
2022/01/26 22:20:48;;;;;;;18.47;14.87;;;;;;;4.78;56.51;99161.06;8395878;28;20226;-86
2022/01/26 22:24:52;;;;;;;21.50;16.70;;;;;;;4.76;56.54;99159.34;8399070;28;20234;-86
2022/01/26 22:28:57;;;;;;;21.33;17.60;;;;;;;4.74;56.79;99164.50;8412858;28;20226;-87
2022/01/26 22:33:02;;;;;;;19.93;16.30;;;;;;;4.86;56.29;99161.06;8413654;28;20405;-87
2022/01/26 22:37:07;;;;;;;23.00;16.53;;;;;;;4.87;56.09;99162.75;8414106;28;20437;-88
2022/01/26 22:41:10;;;;;;;19.47;15.70;;;;;;;4.86;56.34;99155.91;8414566;28;20551;-87
2022/01/26 22:45:15;;;;;;;18.77;15.87;;;;;;;4.68;56.42;99143.97;8413653;28;20254;-86
2022/01/26 22:49:18;;;;;;;20.27;16.70;;;;;;;4.66;57.01;99146.56;8413786;28;20245;-87
2022/01/26 22:53:23;;;;;;;20.03;17.00;;;;;;;4.41;57.69;99142.28;8412588;28;20231;-87
2022/01/26 22:57:29;;;;;;;20.63;17.00;;;;;;;4.45;57.64;99154.25;8417013;28;20510;-87
2022/01/26 23:06:06;;;;;;;18.30;16.27;;;;;;;4.52;56.98;99153.41;8388444;28;20231;-87
2022/01/26 23:10:10;;;;;;;20.83;16.80;;;;;;;4.51;55.86;99154.25;8419330;28;20254;-86
2022/01/26 23:14:15;;;;;;;22.47;17.60;;;;;;;4.56;56.58;99149.13;8418311;28;20235;-86
2022/01/26 23:18:40;;;;;;;21.73;17.53;;;;;;;4.65;56.39;99152.53;8432991;28;20409;-86
2022/01/26 23:22:43;;;;;;;19.77;17.60;;;;;;;4.81;55.72;99148.22;8424083;28;20242;-86
2022/01/26 23:27:13;;;;;;;22.30;18.50;;;;;;;4.90;55.40;99165.31;8418155;28;20223;-87
2022/01/26 23:31:33;;;;;;;21.90;17.33;;;;;;;4.73;55.69;99162.78;8418780;28;20230;-86
2022/01/26 23:35:54;;;;;;;21.07;18.07;;;;;;;4.56;56.19;99160.22;8417301;28;20227;-86
2022/01/26 23:40:18;;;;;;;21.80;18.63;;;;;;;4.89;55.24;99153.31;8416886;28;20246;-86
2022/01/26 23:57:17;;;;;;;22.57;19.30;;;;;;;4.89;55.15;99149.06;8418028;28;20230;-86
2022/01/26 23:57:56;;;;;;;20.07;17.00;;;;;;;4.39;56.12;99128.63;8416236;28;20297;-84
